Strona główna
Zdjęcia satelitarne 10-dni prognozyKlimatMeteorologia morska Cyklony Błyskawica LotniskoFAQ Gazetka O
Pogoda : Europa Afryka Ameryka Północna Ameryka Południowa Azja Australia-Oceania Inny
Języki Kontakt

Łódź, Polska

Lublinek

Szerokość geograficzna: 51-43-19N, Długość geograficzna: 019-23-53E, wysokość: 184 m


METAR: EPLL 020130Z 00000KT 9000 FEW043 M03/M05 Q0993
TAF: EPLL 012330Z 0200/0224 20003KT CAVOK PROB30 0200/0207 3000 BR BECMG 0212/0215 BKN025

czas: 02:41 (01:41 UTC)

Aktualna obserwacja pogody

Raport powstał 11 minut temu, godzina 01:30 UTC
Cisza
Temperatura -3°C
Wilgotność 86%
Ciśnienie 993 hPa
Widzialność: 9000 m
Mało chmury na wysokości 4300 ft

Jednostka miary

Prognoza

Raport powstał 2 godziny i 11 minut temu, godzina 23:30 UTC
Prognoza ważna od 02 godzina 00 UTC do 02 godzina 24 UTC
Wiatr 3 kt od południowo-południowy zachód
Widzialność 10 km lub więcej
Brak chmur poniżej 1500 m i brak chmur cumulonimbus
Prawdopodobieństwo 30%
od 02 godzina 00 UTC do 02 godzina 07 UTC
Widzialność: 3000 m
zamglenie
Stopniowe zmiany
od 02 godzina 12 UTC do 02 godzina 15 UTC
Przerywane chmury na wysokości 2500 ft
Informacje na tej stronie internetowej podlegają klauzuli o wyłączeniu odpowiedzialności
Pogoda : Europa Afryka Ameryka Północna Ameryka Południowa Azja Australia-Oceania Inny
Zdjęcia satelitarne 10-dni prognozyKlimatMeteorologia morska Cyklony Błyskawica LotniskoFAQ Języki Kontakt Gazetka O